Latest Weather Observations for Southern Cross Airport

IDW60801

Issued at 10:53 pm WST Wednesday 8 July 2020 (issued every 10 minutes, with the page automatically refreshed every 10 minutes)

About weather observations | Map of weather stations | Latest weather observations for WA | Other Formats
Station Details ID: 012320 Name: SOUTHERN CROSS AIRFIELD Lat: -31.24 Lon: 119.36 Height: 347.4 m
Data from the previous 72 hours. | See also: Recent months at Southern Cross Airport
Date/Time
WST
Temp
°C
App
Temp
°C
Dew
Point
°C
Rel
Hum
%
Delta-T
°C
Wind Press
QNH
hPa
Press
MSL
hPa
Rain since
9am
mm
Dir  Spd
km/h
Gust
km/h
Spd
kts
Gust
kts
08/10:30pm 7.5 6.3 4.6 82 1.3 CALM 0 0 0 0 1023.2 1023.5 0.0
08/10:00pm 8.5 7.2 4.1 74 1.9 CALM 0 0 0 0 1023.1 1023.4 0.0
08/09:30pm 9.6 8.4 4.4 70 2.4 CALM 0 0 0 0 1023.2 1023.5 0.0
08/09:00pm 10.3 9.2 4.9 69 2.5 CALM 0 0 0 0 1022.9 1023.2 0.0
08/08:30pm 11.1 9.9 4.8 65 2.9 CALM 0 0 0 0 1023.0 1023.3 0.0
08/08:00pm 11.5 10.3 4.7 63 3.1 CALM 0 0 0 0 1023.1 1023.4 0.0
08/07:30pm 11.3 9.0 4.7 64 3.1 WSW 6 9 3 5 1023.1 1023.4 0.0
08/07:00pm 11.3 8.7 4.3 62 3.2 WSW 7 9 4 5 1023.1 1023.4 0.0
08/06:30pm 12.1 9.1 4.1 58 3.7 SW 9 11 5 6 1022.9 1023.2 0.0
08/06:00pm 12.6 8.7 3.6 54 4.1 SW 13 17 7 9 1022.6 1022.9 0.0
08/05:30pm 12.9 8.6 3.3 52 4.4 SW 15 19 8 10 1022.2 1022.5 0.0
08/05:00pm 13.2 8.9 3.3 51 4.5 SSW 15 19 8 10 1022.0 1022.3 0.0
08/04:30pm 13.8 8.4 2.7 47 5.0 SW 20 24 11 13 1022.1 1022.4 0.0
08/04:00pm 13.8 9.0 2.7 47 5.0 SW 17 24 9 13 1022.1 1022.4 0.0
08/03:30pm 14.7 9.0 2.9 45 5.4 SSW 22 28 12 15 1022.0 1022.3 0.0
08/03:00pm 15.0 9.7 2.9 44 5.5 SW 20 28 11 15 1021.9 1022.2 0.0
08/02:30pm 15.1 9.9 3.3 45 5.5 SW 20 28 11 15 1021.9 1022.2 0.0
08/02:00pm 14.6 10.5 4.3 50 4.8 WSW 15 24 8 13 1021.9 1022.2 0.0
08/01:30pm 14.3 9.4 4.3 51 4.7 SW 19 24 10 13 1022.1 1022.4 0.0
08/01:00pm 14.9 10.0 4.3 49 5.0 WSW 19 26 10 14 1022.4 1022.7 0.0
08/12:30pm 14.4 10.0 5.0 53 4.5 WSW 17 22 9 12 1022.8 1023.1 0.0
08/12:00pm 14.2 10.2 5.0 54 4.4 WSW 15 22 8 12 1023.3 1023.6 0.0
08/11:30am 13.6 10.1 5.3 57 4.0 W 13 20 7 11 1023.8 1024.0 0.0
08/11:00am 13.3 9.8 7.1 66 3.1 WSW 15 20 8 11 1024.1 1024.3 0.0
08/10:30am 12.9 9.6 6.3 64 3.2 WSW 13 17 7 9 1024.4 1024.7 0.0
08/10:00am 12.1 9.4 7.4 73 2.3 WSW 11 15 6 8 1024.5 1024.8 0.0
08/09:30am 11.9 10.0 7.6 75 2.1 SW 7 11 4 6 1024.3 1024.6 0.0
08/09:00am 11.4 11.2 9.0 85 1.2 CALM 0 2 0 1 1024.1 1024.3 0.0
08/08:30am 10.3 10.2 9.5 95 0.4 CALM 0 6 0 3 1024.0 1024.2 0.0
08/08:13am 9.5 7.9 8.9 96 0.3 NW 7 11 4 6 1023.9 1024.1 0.0
08/08:00am 9.3 7.3 8.8 97 0.2 W 9 11 5 6 1023.8 1024.0 0.0
08/07:30am 8.9 6.1 8.5 97 0.2 W 13 17 7 9 1023.6 1023.9 0.0
08/07:14am 8.8 6.4 8.5 98 0.1 W 11 15 6 8 1023.5 1023.8 0.0
08/07:00am 7.7 6.3 7.4 98 0.1 WNW 4 13 2 7 1023.4 1023.7 0.0
08/06:30am 6.8 5.2 6.4 97 0.2 NNW 4 6 2 3 1022.9 1023.2 0.0
08/06:00am 7.4 5.4 7.0 97 0.2 NNW 7 7 4 4 1022.5 1022.8 0.0
08/05:30am 7.1 5.0 6.5 96 0.3 NNW 7 7 4 4 1022.4 1022.7 0.0
08/05:00am 6.7 4.6 6.0 95 0.3 WNW 6 7 3 4 1022.3 1022.6 0.0
08/04:30am 7.6 5.6 6.9 95 0.3 WNW 7 9 4 5 1022.2 1022.5 0.0
08/04:00am 7.6 5.1 6.5 93 0.5 WNW 9 13 5 7 1022.5 1022.8 0.0
08/03:30am 8.5 5.8 7.3 92 0.6 WNW 11 13 6 7 1022.7 1023.0 0.0
08/03:00am 9.0 6.4 7.6 91 0.7 WNW 11 15 6 8 1022.5 1022.8 0.0
08/02:30am 9.6 7.0 7.7 88 0.9 WNW 11 13 6 7 1022.6 1022.9 0.0
08/02:00am 10.7 8.2 8.1 84 1.3 W 11 15 6 8 1022.6 1022.9 0.0
08/01:30am 11.6 8.8 8.5 81 1.6 W 13 17 7 9 1022.7 1023.0 0.0
08/01:00am 11.6 8.7 8.3 80 1.6 W 13 15 7 8 1022.6 1022.9 0.0
08/12:30am 11.2 8.6 7.7 79 1.7 WNW 11 13 6 7 1022.8 1023.1 0.0
08/12:00am 11.4 9.1 7.3 76 2.0 WNW 9 11 5 6 1022.9 1023.2 0.0
 
Date/Time
WST
Temp
°C
App
Temp
°C
Dew
Point
°C
Rel
Hum
%
Delta-T
°C
Wind Press
QNH
hPa
Press
MSL
hPa
Rain since
9am
mm
Dir  Spd
km/h
Gust
km/h
Spd
kts
Gust
kts
07/11:30pm 11.7 9.3 6.8 72 2.4 W 9 11 5 6 1022.9 1023.2 0.0
07/11:00pm 12.2 8.4 5.8 65 3.0 WNW 15 19 8 10 1023.0 1023.3 0.0
07/10:30pm 11.8 8.8 5.9 67 2.8 NW 11 13 6 7 1022.8 1023.1 0.0
07/10:00pm 11.2 8.6 6.1 71 2.4 NW 9 11 5 6 1022.7 1023.0 0.0
07/09:30pm 11.6 8.9 5.5 66 2.9 NW 9 11 5 6 1022.7 1023.0 0.0
07/09:00pm 12.6 9.6 6.0 64 3.2 NNW 11 13 6 7 1022.8 1023.1 0.0
07/08:30pm 12.7 10.1 6.3 65 3.1 NNW 9 11 5 6 1022.8 1023.1 0.0
07/08:00pm 12.7 10.3 7.0 68 2.8 NNW 9 11 5 6 1022.9 1023.2 0.0
07/07:30pm 12.9 10.9 6.9 67 2.9 NW 7 9 4 5 1022.8 1023.1 0.0
07/07:00pm 13.2 10.8 7.0 66 3.0 WNW 9 13 5 7 1023.0 1023.3 0.0
07/06:30pm 13.6 10.7 6.7 63 3.4 W 11 15 6 8 1022.9 1023.2 0.0
07/06:00pm 13.7 10.4 6.6 62 3.5 W 13 17 7 9 1022.5 1022.8 0.0
07/05:30pm 13.9 11.0 6.5 61 3.6 W 11 15 6 8 1022.1 1022.4 0.0
07/05:00pm 14.2 9.7 6.3 59 3.9 W 19 22 10 12 1022.1 1022.4 0.0
07/04:30pm 14.7 10.2 6.0 56 4.2 W 19 22 10 12 1021.9 1022.2 0.0
07/04:00pm 14.7 9.9 5.8 55 4.3 W 20 26 11 14 1022.0 1022.3 0.0
07/03:30pm 15.0 11.4 5.2 52 4.7 WNW 13 20 7 11 1021.9 1022.2 0.0
07/03:00pm 14.9 9.7 5.7 54 4.5 W 22 28 12 15 1021.9 1022.2 0.0
07/02:30pm 15.3 10.2 5.8 53 4.6 W 22 30 12 16 1021.8 1022.1 0.0
07/02:00pm 15.6 10.3 5.2 50 5.0 W 22 32 12 17 1021.9 1022.2 0.0
07/01:30pm 15.3 10.1 5.5 52 4.8 WNW 22 30 12 16 1022.0 1022.3 0.0
07/01:00pm 15.7 10.8 5.0 49 5.1 WNW 20 30 11 16 1022.2 1022.5 0.0
07/12:30pm 14.7 9.6 6.0 56 4.2 W 22 33 12 18 1022.5 1022.8 0.0
07/12:00pm 15.1 11.3 7.6 61 3.8 W 17 24 9 13 1022.8 1023.1 0.0
07/11:30am 14.9 11.5 7.5 61 3.7 W 15 24 8 13 1023.1 1023.4 0.0
07/11:00am 14.3 11.4 8.3 67 3.0 WNW 13 20 7 11 1023.6 1023.9 0.0
07/10:30am 13.6 11.6 8.7 72 2.5 NW 9 17 5 9 1023.9 1024.1 0.0
07/10:00am 11.8 9.7 8.3 79 1.7 N 9 11 5 6 1024.1 1024.3 0.0
07/09:30am 10.4 7.8 7.6 83 1.4 N 11 15 6 8 1024.1 1024.3 0.0
07/09:00am 9.1 6.0 7.2 88 0.9 NNE 13 15 7 8 1024.1 1024.3 1.4
07/08:30am 7.5 5.5 7.1 97 0.2 NNE 7 9 4 5 1024.0 1024.2 1.4
07/08:00am 4.4 2.3 4.0 97 0.2 NNE 4 7 2 4 1023.9 1024.1 1.4
07/07:30am 2.2 0.5 1.6 96 0.2 CALM 0 0 0 0 1023.5 1023.8 1.4
07/07:00am 3.2 1.6 2.6 96 0.2 CALM 0 0 0 0 1023.0 1023.3 1.4
07/06:30am 3.5 2.0 2.9 96 0.2 CALM 0 6 0 3 1022.8 1023.1 1.4
07/06:00am 3.9 1.1 3.3 96 0.2 NNE 7 9 4 5 1022.5 1022.8 1.4
07/05:30am 4.1 1.0 3.4 95 0.3 N 9 11 5 6 1022.4 1022.7 1.4
07/05:00am 4.3 1.2 3.4 94 0.4 NNE 9 11 5 6 1022.3 1022.6 1.4
07/04:30am 4.6 1.9 3.7 94 0.4 N 7 9 4 5 1022.1 1022.4 1.4
07/04:00am 5.2 2.2 4.2 93 0.4 N 9 13 5 7 1022.1 1022.4 1.4
07/03:30am 6.2 3.0 5.3 94 0.4 N 11 13 6 7 1022.2 1022.5 1.4
07/03:00am 5.2 2.6 4.0 92 0.5 NNE 7 9 4 5 1022.1 1022.4 1.4
07/02:30am 5.4 2.4 4.1 91 0.6 NNE 9 11 5 6 1022.0 1022.3 1.4
07/02:00am 6.3 3.3 4.3 87 0.9 WNW 9 11 5 6 1022.0 1022.3 1.4
07/01:30am 8.4 4.6 6.0 85 1.1 WSW 15 20 8 11 1021.8 1022.1 1.4
07/01:00am 6.6 4.4 5.1 90 0.7 WNW 6 9 3 5 1021.8 1022.1 1.4
07/12:30am 6.0 3.4 4.3 89 0.7 NW 7 9 4 5 1021.9 1022.2 1.4
07/12:00am 6.2 3.7 4.5 89 0.7 N 7 9 4 5 1021.8 1022.1 1.4
 
Date/Time
WST
Temp
°C
App
Temp
°C
Dew
Point
°C
Rel
Hum
%
Delta-T
°C
Wind Press
QNH
hPa
Press
MSL
hPa
Rain since
9am
mm
Dir  Spd
km/h
Gust
km/h
Spd
kts
Gust
kts
06/11:30pm 7.2 4.3 4.5 83 1.2 NW 9 11 5 6 1021.9 1022.2 1.4
06/11:00pm 8.5 5.0 5.4 81 1.4 WNW 13 15 7 8 1021.9 1022.2 1.4
06/10:30pm 9.0 6.3 5.6 79 1.6 WNW 9 13 5 7 1022.0 1022.3 1.4
06/10:00pm 9.7 7.1 5.9 77 1.8 W 9 15 5 8 1021.7 1021.9 1.4
06/09:30pm 9.1 6.1 5.8 80 1.5 WNW 11 13 6 7 1021.4 1021.6 1.4
06/09:00pm 9.6 6.1 5.6 76 1.9 NW 13 15 7 8 1021.4 1021.6 1.4
06/08:30pm 9.7 6.4 6.4 80 1.6 WNW 13 15 7 8 1021.1 1021.3 1.4
06/08:00pm 10.2 8.1 6.5 78 1.8 NW 7 11 4 6 1020.9 1021.1 1.4
06/07:30pm 9.9 7.0 6.6 80 1.6 NW 11 11 6 6 1020.5 1020.8 1.4
06/07:00pm 11.4 8.7 7.3 76 2.0 NW 11 13 6 7 1020.2 1020.5 1.4
06/06:30pm 11.4 9.2 7.9 79 1.7 NW 9 13 5 7 1019.9 1020.2 1.4
06/06:00pm 12.3 10.3 8.6 78 1.9 NW 9 11 5 6 1019.5 1019.8 1.4
06/05:30pm 13.9 11.2 8.9 72 2.6 WNW 13 17 7 9 1019.2 1019.4 1.4
06/05:00pm 15.1 11.7 9.2 68 3.1 WNW 17 22 9 12 1018.7 1018.9 1.4
06/04:30pm 16.3 12.0 9.3 63 3.7 WNW 22 28 12 15 1018.6 1018.8 1.4
06/04:00pm 16.5 11.1 9.4 63 3.7 WNW 28 37 15 20 1018.6 1018.8 1.4
06/03:30pm 15.8 10.8 9.7 67 3.2 W 26 35 14 19 1018.5 1018.7 1.4
06/03:00pm 15.2 10.0 8.9 66 3.3 WNW 26 41 14 22 1018.5 1018.7 1.4
06/02:30pm 15.4 12.4 11.8 79 2.0 WNW 19 24 10 13 1018.3 1018.5 1.4
06/02:00pm 15.3 13.6 12.4 83 1.6 NNW 13 17 7 9 1018.5 1018.7 1.4
06/01:30pm 14.1 11.7 11.4 84 1.5 WNW 15 22 8 12 1018.5 1018.7 1.4
06/01:00pm 15.9 12.3 10.7 71 2.8 WNW 20 26 11 14 1018.8 1019.0 0.0
06/12:30pm 16.4 12.8 10.7 69 3.1 WNW 20 24 11 13 1018.6 1018.8 0.0
06/12:00pm 16.4 13.4 10.5 68 3.2 NW 17 20 9 11 1018.8 1019.0 0.0
06/11:30am 15.5 12.4 10.3 71 2.8 W 17 22 9 12 1019.1 1019.3 0.0
06/11:00am 15.6 12.1 10.8 73 2.6 W 20 26 11 14 1019.5 1019.8 0.0
06/10:30am 16.0 13.7 10.3 69 3.1 NW 13 20 7 11 1019.5 1019.8 0.0
06/10:00am 15.5 12.1 9.0 65 3.4 N 17 19 9 10 1019.2 1019.4 0.0
06/09:30am 14.9 11.6 8.2 64 3.4 NNE 15 20 8 11 1019.0 1019.2 0.0
06/09:00am 13.2 10.7 8.3 72 2.5 NNE 11 17 6 9 1018.6 1018.8 0.8
06/08:30am 12.6 10.4 7.7 72 2.4 NNE 9 11 5 6 1018.8 1019.0 0.8
06/08:00am 11.4 9.3 8.3 81 1.5 N 9 11 5 6 1018.7 1018.9 0.8
06/07:30am 11.3 9.1 7.8 79 1.7 NW 9 13 5 7 1018.4 1018.6 0.6
06/07:00am 12.1 9.7 6.8 70 2.6 ENE 9 13 5 7 1017.8 1018.0 0.4
06/06:30am 11.7 8.4 6.6 71 2.5 NE 13 15 7 8 1017.5 1017.8 0.4
06/06:00am 12.8 9.6 5.0 59 3.7 NNW 11 13 6 7 1017.4 1017.7 0.0
06/05:30am 12.8 9.2 4.8 58 3.8 N 13 26 7 14 1017.0 1017.3 0.0
06/05:00am 11.7 7.9 3.7 58 3.6 N 13 28 7 15 1016.6 1016.8 0.0
06/04:30am 14.1 9.7 2.7 46 5.2 NE 15 19 8 10 1015.6 1015.8 0.0
06/04:00am 14.3 9.5 2.5 45 5.3 NE 17 20 9 11 1015.8 1016.0 0.0
06/03:30am 12.3 9.2 3.5 55 4.0 NE 9 13 5 7 1016.2 1016.4 0.0
06/03:00am 10.6 8.1 3.6 62 3.1 NNE 6 9 3 5 1016.6 1016.8 0.0
06/02:30am 12.4 9.6 3.4 54 4.1 NNE 7 13 4 7 1016.4 1016.6 0.0
06/02:00am 11.7 8.6 3.5 57 3.7 N 9 11 5 6 1016.8 1017.0 0.0
06/01:30am 13.0 10.1 2.8 50 4.6 NNE 7 11 4 6 1016.5 1016.7 0.0
06/01:00am 13.3 10.1 2.8 49 4.7 NNE 9 13 5 7 1016.6 1016.8 0.0
06/12:30am 12.3 9.1 3.3 54 4.1 ENE 9 11 5 6 1016.8 1017.0 0.0
06/12:00am 9.7 7.9 3.4 65 2.8 N 2 6 1 3 1017.3 1017.6 0.0
 
Date/Time
WST
Temp
°C
App
Temp
°C
Dew
Point
°C
Rel
Hum
%
Delta-T
°C
Wind Press
QNH
hPa
Press
MSL
hPa
Rain since
9am
mm
Dir  Spd
km/h
Gust
km/h
Spd
kts
Gust
kts
05/11:30pm 10.7 8.1 3.0 59 3.4 N 6 7 3 4 1017.5 1017.8 0.0
05/11:00pm 11.5 10.1 3.5 58 3.6 CALM 0 0 0 0 1017.8 1018.0 0.0

Other formats

Comma delimited format used in spreadsheet applications
http://www.bom.gov.au/fwo/IDW60801/IDW60801.95634.axf

JavaScript Object Notation format (JSON) in row-major order
http://www.bom.gov.au/fwo/IDW60801/IDW60801.95634.json

Data quality

Most of these data are generated automatically and are frequently updated. Quality checks on data are not normally performed. It is possible for incorrect values to appear. Refer to information at About Latest Weather Observations and please check the disclaimer before using these data.